createdAt,value
2022-08-09T00:02:09.438Z,18.00
2022-08-09T00:05:00.735Z,17.90
2022-08-09T00:07:52.302Z,17.90
2022-08-09T00:10:42.147Z,17.90
2022-08-09T00:13:31.944Z,17.90
2022-08-09T00:16:26.528Z,17.80
2022-08-09T00:19:24.033Z,17.70
2022-08-09T00:22:14.805Z,17.70
2022-08-09T00:25:08.487Z,17.60
2022-08-09T00:27:57.967Z,17.60
2022-08-09T00:30:46.864Z,17.60
2022-08-09T00:33:48.791Z,17.60
2022-08-09T00:36:40.095Z,17.50
2022-08-09T00:40:13.093Z,17.50
2022-08-09T00:44:15.386Z,17.40
2022-08-09T00:48:54.613Z,17.30
2022-08-09T00:51:54.259Z,17.30
2022-08-09T00:54:43.426Z,17.30
2022-08-09T00:57:34.018Z,17.30
2022-08-09T01:00:23.625Z,17.30
2022-08-09T01:03:18.116Z,17.20
2022-08-09T01:06:13.892Z,17.20
2022-08-09T01:09:15.259Z,17.20
2022-08-09T01:12:09.612Z,17.10
2022-08-09T01:15:10.097Z,17.10
2022-08-09T01:18:10.040Z,17.10
2022-08-09T01:21:18.511Z,17.10
2022-08-09T01:24:15.393Z,17.00
2022-08-09T01:27:09.641Z,17.00
2022-08-09T01:30:00.650Z,17.00
2022-08-09T01:32:50.084Z,16.90
2022-08-09T01:35:43.508Z,16.90
2022-08-09T01:38:36.269Z,16.90
2022-08-09T01:41:30.705Z,16.90
2022-08-09T01:44:20.695Z,16.90
2022-08-09T01:47:11.779Z,16.80
2022-08-09T01:50:00.073Z,16.80
2022-08-09T01:52:48.739Z,16.80
2022-08-09T01:55:39.378Z,16.70
2022-08-09T01:58:28.558Z,16.70
2022-08-09T02:01:18.909Z,16.70
2022-08-09T02:04:08.566Z,16.60
2022-08-09T02:07:18.276Z,16.60
2022-08-09T02:10:29.889Z,16.60
2022-08-09T02:13:19.640Z,16.60
2022-08-09T02:16:12.565Z,16.60
2022-08-09T02:19:03.204Z,16.50
2022-08-09T02:21:59.664Z,16.50
2022-08-09T02:24:54.834Z,16.50
2022-08-09T02:28:00.413Z,16.50
2022-08-09T02:30:59.718Z,16.40
2022-08-09T02:34:07.043Z,16.40
2022-08-09T02:37:03.833Z,16.40
2022-08-09T02:40:01.779Z,16.40
2022-08-09T02:42:52.656Z,16.40
2022-08-09T02:45:44.828Z,16.30
2022-08-09T02:48:34.717Z,16.40
2022-08-09T02:51:24.235Z,16.40
2022-08-09T02:54:16.871Z,16.30
2022-08-09T02:57:13.598Z,16.30
2022-08-09T03:00:25.537Z,16.30
2022-08-09T03:03:21.584Z,16.30
2022-08-09T03:06:27.513Z,16.30
2022-08-09T03:09:17.661Z,16.30
2022-08-09T03:12:11.250Z,16.30
2022-08-09T03:15:01.587Z,16.30
2022-08-09T03:17:57.886Z,16.30
2022-08-09T03:20:46.124Z,16.30
2022-08-09T03:23:33.927Z,16.30
2022-08-09T03:26:30.776Z,16.30
2022-08-09T03:29:22.897Z,16.30
2022-08-09T03:32:11.158Z,16.30
2022-08-09T03:34:59.873Z,16.30
2022-08-09T03:37:55.197Z,16.30
2022-08-09T03:40:44.317Z,16.30
2022-08-09T03:43:33.859Z,16.20
2022-08-09T03:46:29.161Z,16.30
2022-08-09T03:49:21.249Z,16.20
2022-08-09T03:52:12.844Z,16.20
2022-08-09T03:55:07.541Z,16.20
2022-08-09T03:58:09.712Z,16.20
2022-08-09T04:01:05.229Z,16.10
2022-08-09T04:04:01.229Z,16.10
2022-08-09T04:06:51.083Z,16.10
2022-08-09T04:09:47.476Z,16.10
2022-08-09T04:12:45.343Z,16.10
2022-08-09T04:16:17.258Z,16.10
2022-08-09T04:18:41.934Z,16.10
2022-08-09T04:21:29.096Z,16.10
2022-08-09T04:24:26.840Z,16.10
2022-08-09T04:27:14.527Z,16.10
2022-08-09T04:30:02.149Z,16.00
2022-08-09T04:32:49.229Z,16.00
2022-08-09T04:35:40.227Z,15.80
2022-08-09T04:38:29.611Z,16.20
2022-08-09T04:41:16.791Z,16.00
2022-08-09T04:44:11.148Z,16.10
2022-08-09T04:47:04.517Z,16.10
2022-08-09T04:49:55.549Z,16.20
2022-08-09T04:52:44.557Z,16.20
2022-08-09T04:55:38.971Z,16.10
2022-08-09T04:58:38.423Z,16.20
2022-08-09T05:01:25.409Z,16.20
2022-08-09T05:04:13.898Z,16.30
2022-08-09T05:07:01.711Z,16.40
2022-08-09T05:09:50.471Z,16.50
2022-08-09T05:12:37.575Z,16.60
2022-08-09T05:15:39.133Z,16.70
2022-08-09T05:18:38.171Z,16.80
2022-08-09T05:21:46.845Z,16.90
2022-08-09T05:24:39.482Z,17.10
2022-08-09T05:27:28.178Z,17.20
2022-08-09T05:30:19.529Z,17.40
2022-08-09T05:33:09.442Z,17.50
2022-08-09T05:35:58.214Z,17.50
2022-08-09T05:38:46.155Z,17.60
2022-08-09T05:41:34.414Z,17.80
2022-08-09T05:44:29.020Z,17.90
2022-08-09T05:47:21.599Z,18.00
2022-08-09T05:50:30.021Z,18.20
2022-08-09T05:53:31.755Z,18.30
2022-08-09T05:56:21.160Z,18.40
2022-08-09T05:59:12.947Z,18.50
2022-08-09T06:02:05.193Z,18.70
2022-08-09T06:04:52.178Z,18.80
2022-08-09T06:07:42.953Z,18.90
2022-08-09T06:10:39.396Z,19.10
2022-08-09T06:13:28.776Z,19.20
2022-08-09T06:16:23.471Z,19.40
2022-08-09T06:19:14.834Z,19.50
2022-08-09T06:22:01.731Z,19.60
2022-08-09T06:24:49.190Z,19.70
2022-08-09T06:27:43.233Z,19.80
2022-08-09T06:30:39.519Z,20.00
2022-08-09T06:33:41.201Z,20.10
2022-08-09T06:36:30.735Z,20.30
2022-08-09T06:39:18.567Z,20.50
2022-08-09T06:42:11.446Z,20.60
2022-08-09T06:45:00.177Z,20.80
2022-08-09T06:47:57.887Z,20.90
2022-08-09T06:50:48.609Z,21.10
2022-08-09T06:53:38.339Z,21.20
2022-08-09T06:56:30.931Z,21.40
2022-08-09T07:00:50.246Z,21.50
2022-08-09T07:02:31.100Z,21.60
2022-08-09T07:05:20.681Z,21.70
2022-08-09T07:08:09.491Z,21.80
2022-08-09T07:10:57.775Z,21.90
2022-08-09T07:13:45.465Z,22.10
2022-08-09T07:16:57.733Z,22.30
2022-08-09T07:19:48.140Z,22.50
2022-08-09T07:22:43.758Z,22.70
2022-08-09T07:25:42.711Z,22.80
2022-08-09T07:28:34.868Z,23.00
2022-08-09T07:31:24.007Z,23.20
2022-08-09T07:34:20.754Z,23.30
2022-08-09T07:37:15.596Z,23.50
2022-08-09T07:40:04.030Z,23.80
2022-08-09T07:42:55.438Z,24.00
2022-08-09T07:45:44.363Z,24.20
2022-08-09T07:48:31.787Z,24.30
2022-08-09T07:52:05.906Z,23.90
2022-08-09T07:54:31.218Z,24.90
2022-08-09T07:57:19.096Z,24.50
2022-08-09T08:00:09.348Z,25.10
2022-08-09T08:03:05.229Z,25.50
2022-08-09T08:05:57.675Z,25.50
2022-08-09T08:09:00.719Z,25.60
2022-08-09T08:12:10.123Z,25.80
2022-08-09T08:14:57.767Z,26.00
2022-08-09T08:17:52.967Z,26.30
2022-08-09T08:20:44.493Z,26.60
2022-08-09T08:23:34.894Z,26.80
2022-08-09T08:26:26.594Z,27.20
2022-08-09T08:29:39.192Z,27.10
2022-08-09T08:32:32.481Z,27.30
2022-08-09T08:35:22.262Z,27.60
2022-08-09T08:38:11.860Z,27.60
2022-08-09T08:41:01.769Z,27.80
2022-08-09T08:43:53.647Z,27.90
2022-08-09T08:47:02.220Z,28.00
2022-08-09T08:49:52.756Z,28.30
2022-08-09T08:52:59.036Z,28.50
2022-08-09T08:55:48.897Z,28.80
2022-08-09T08:58:46.490Z,29.10
2022-08-09T09:01:52.415Z,29.30
2022-08-09T09:04:48.190Z,29.10
2022-08-09T09:07:44.686Z,28.90
2022-08-09T09:10:34.352Z,28.70
2022-08-09T09:13:23.965Z,28.40
2022-08-09T09:16:30.931Z,28.50
2022-08-09T09:19:37.217Z,28.70
2022-08-09T09:22:28.657Z,28.90
2022-08-09T09:26:02.034Z,29.10
2022-08-09T09:29:04.075Z,29.00
2022-08-09T09:32:06.119Z,29.10
2022-08-09T09:35:09.240Z,29.30
2022-08-09T09:37:56.489Z,29.40
2022-08-09T09:40:46.720Z,29.60
2022-08-09T09:44:10.302Z,29.70
2022-08-09T09:46:50.520Z,29.60
2022-08-09T09:50:15.292Z,29.10
2022-08-09T09:52:54.537Z,28.70
2022-08-09T09:55:57.684Z,28.50
2022-08-09T09:58:51.808Z,28.20
2022-08-09T10:01:43.682Z,28.10
2022-08-09T10:04:31.357Z,28.10
2022-08-09T10:07:25.353Z,27.90
2022-08-09T10:10:13.116Z,27.80
2022-08-09T10:13:05.890Z,27.70
2022-08-09T10:16:55.186Z,27.60
2022-08-09T10:19:07.740Z,27.50
2022-08-09T10:21:57.304Z,27.30
2022-08-09T10:24:50.000Z,27.40
2022-08-09T10:27:38.822Z,27.50
2022-08-09T10:32:27.582Z,27.60
2022-08-09T10:34:10.382Z,27.70
2022-08-09T10:36:56.959Z,27.70
2022-08-09T10:39:49.555Z,27.60
2022-08-09T10:42:36.959Z,27.70
2022-08-09T10:45:31.952Z,27.70
2022-08-09T10:48:30.647Z,27.80
2022-08-09T10:51:41.318Z,27.80
2022-08-09T10:54:30.484Z,27.90
2022-08-09T10:57:17.770Z,27.90
2022-08-09T11:03:01.786Z,27.90
2022-08-09T11:04:19.831Z,27.80
2022-08-09T11:07:57.463Z,27.90
2022-08-09T11:11:00.721Z,28.00
2022-08-09T11:14:28.284Z,28.10
2022-08-09T11:17:41.851Z,28.00
2022-08-09T11:20:49.653Z,27.90
2022-08-09T11:24:06.815Z,27.80
2022-08-09T11:26:55.500Z,27.80
2022-08-09T11:30:04.468Z,27.70
2022-08-09T11:32:59.057Z,27.80
2022-08-09T11:35:49.810Z,27.80
2022-08-09T11:38:41.550Z,27.90
2022-08-09T11:41:37.596Z,28.00
2022-08-09T11:44:49.813Z,28.10
2022-08-09T11:47:36.802Z,28.00
2022-08-09T11:50:55.279Z,27.90
2022-08-09T11:54:01.375Z,28.00
2022-08-09T11:56:47.651Z,28.10
2022-08-09T11:59:37.825Z,28.20
2022-08-09T12:02:37.069Z,28.40
2022-08-09T12:05:42.179Z,28.50
2022-08-09T12:08:34.620Z,28.30
2022-08-09T12:11:23.989Z,28.40
2022-08-09T12:14:28.523Z,28.60
2022-08-09T12:17:33.957Z,28.70
2022-08-09T12:20:30.813Z,28.70
2022-08-09T12:23:24.708Z,28.60
2022-08-09T12:26:26.688Z,28.60
2022-08-09T12:29:29.743Z,28.60
2022-08-09T12:32:28.384Z,28.60
2022-08-09T12:35:19.105Z,28.60
2022-08-09T12:38:29.799Z,28.60
2022-08-09T12:41:28.659Z,28.70
2022-08-09T12:44:16.375Z,28.80
2022-08-09T12:47:12.099Z,28.90
2022-08-09T12:50:13.501Z,29.00
2022-08-09T12:53:17.826Z,28.90
2022-08-09T12:56:34.905Z,28.90
2022-08-09T12:59:21.266Z,29.00
2022-08-09T13:02:09.617Z,29.10
2022-08-09T13:05:04.340Z,29.00
2022-08-09T13:08:15.535Z,29.00
2022-08-09T13:11:13.596Z,28.90
2022-08-09T13:14:42.752Z,29.00
2022-08-09T13:18:03.910Z,29.00
2022-08-09T13:20:50.292Z,29.10
2022-08-09T13:24:06.887Z,29.40
2022-08-09T13:26:57.570Z,29.40
2022-08-09T13:30:03.780Z,29.30
2022-08-09T13:33:02.124Z,29.30
2022-08-09T13:36:24.723Z,29.30
2022-08-09T13:39:00.021Z,29.30
2022-08-09T13:41:57.643Z,29.30
2022-08-09T13:44:48.693Z,29.30
2022-08-09T13:47:48.991Z,29.30
2022-08-09T13:50:38.210Z,29.40
2022-08-09T13:53:37.344Z,29.30
2022-08-09T13:56:29.964Z,29.10
2022-08-09T13:59:19.019Z,29.10
2022-08-09T14:02:12.882Z,29.20
2022-08-09T14:06:00.376Z,29.30
2022-08-09T14:08:21.852Z,29.30
2022-08-09T14:11:09.986Z,29.40
2022-08-09T14:14:24.136Z,29.30
2022-08-09T14:17:12.147Z,29.40
2022-08-09T14:20:01.332Z,29.40
2022-08-09T14:22:52.975Z,29.50
2022-08-09T14:25:42.906Z,29.70
2022-08-09T14:28:31.563Z,29.90
2022-08-09T14:31:18.447Z,30.00
2022-08-09T14:34:11.287Z,29.90
2022-08-09T14:36:58.580Z,29.80
2022-08-09T14:39:48.703Z,29.80
2022-08-09T14:42:36.245Z,29.80
2022-08-09T14:46:55.533Z,29.60
2022-08-09T14:48:31.621Z,29.40
2022-08-09T14:51:20.015Z,29.40
2022-08-09T14:54:09.381Z,29.50
2022-08-09T14:56:59.247Z,29.50
2022-08-09T14:59:48.693Z,29.40
2022-08-09T15:02:36.391Z,29.30
2022-08-09T15:05:25.029Z,29.20
2022-08-09T15:08:12.519Z,29.10
2022-08-09T15:11:05.162Z,28.90
2022-08-09T15:14:04.314Z,28.80
2022-08-09T15:17:00.348Z,28.70
2022-08-09T15:19:54.582Z,28.70
2022-08-09T15:22:47.550Z,28.70
2022-08-09T15:25:40.750Z,28.60
2022-08-09T15:28:33.332Z,28.60
2022-08-09T15:31:22.303Z,28.60
2022-08-09T15:34:34.605Z,28.70
2022-08-09T15:37:37.693Z,28.80
2022-08-09T15:40:44.356Z,28.80
2022-08-09T15:43:37.227Z,28.80
2022-08-09T15:46:32.248Z,28.80
2022-08-09T15:49:23.895Z,28.60
2022-08-09T15:52:11.775Z,28.50
2022-08-09T15:54:59.110Z,28.50
2022-08-09T15:57:51.271Z,28.50
2022-08-09T16:00:39.308Z,28.50
2022-08-09T16:03:38.396Z,28.50
2022-08-09T16:06:34.663Z,28.40
2022-08-09T16:09:32.355Z,28.30
2022-08-09T16:12:32.485Z,28.30
2022-08-09T16:16:04.628Z,28.20
2022-08-09T16:18:29.041Z,28.20
2022-08-09T16:21:17.504Z,28.10
2022-08-09T16:24:30.267Z,28.10
2022-08-09T16:27:20.618Z,28.00
2022-08-09T16:30:15.129Z,28.00
2022-08-09T16:33:15.898Z,28.10
2022-08-09T16:36:11.917Z,28.00
2022-08-09T16:39:01.556Z,28.00
2022-08-09T16:42:03.057Z,28.00
2022-08-09T16:44:52.094Z,27.90
2022-08-09T16:48:38.847Z,27.90
2022-08-09T16:50:58.864Z,27.80
2022-08-09T16:54:22.410Z,27.80
2022-08-09T16:56:56.510Z,27.70
2022-08-09T16:59:50.249Z,27.60
2022-08-09T17:02:46.309Z,27.60
2022-08-09T17:06:07.687Z,27.50
2022-08-09T17:09:03.013Z,27.50
2022-08-09T17:11:52.454Z,27.40
2022-08-09T17:14:47.572Z,27.30
2022-08-09T17:17:51.131Z,27.30
2022-08-09T17:20:45.571Z,27.30
2022-08-09T17:24:20.891Z,27.20
2022-08-09T17:26:51.931Z,27.00
2022-08-09T17:29:45.520Z,27.00
2022-08-09T17:32:34.880Z,26.90
2022-08-09T17:35:25.842Z,26.80
2022-08-09T17:38:32.014Z,26.80
2022-08-09T17:41:19.559Z,26.70
2022-08-09T17:44:42.531Z,26.60
2022-08-09T17:47:16.607Z,26.60
2022-08-09T17:50:14.100Z,26.50
2022-08-09T17:53:19.419Z,26.40
2022-08-09T17:56:11.129Z,26.30
2022-08-09T17:59:01.213Z,26.20
2022-08-09T18:02:06.213Z,26.10
2022-08-09T18:04:59.991Z,26.00
2022-08-09T18:07:48.931Z,26.00
2022-08-09T18:10:37.152Z,26.00
2022-08-09T18:13:39.208Z,25.90
2022-08-09T18:16:31.361Z,25.90
2022-08-09T18:20:56.930Z,25.80
2022-08-09T18:22:33.971Z,25.80
2022-08-09T18:25:21.329Z,25.70
2022-08-09T18:30:41.749Z,25.60
2022-08-09T18:31:55.036Z,25.50
2022-08-09T18:34:43.865Z,25.50
2022-08-09T18:37:48.702Z,25.40
2022-08-09T18:40:39.914Z,25.40
2022-08-09T18:43:27.290Z,25.30
2022-08-09T18:46:46.760Z,25.20
2022-08-09T18:49:32.299Z,25.20
2022-08-09T18:52:34.840Z,25.10
2022-08-09T18:55:45.606Z,25.10
2022-08-09T18:58:33.074Z,25.00
2022-08-09T19:01:20.652Z,24.90
2022-08-09T19:04:09.005Z,24.80
2022-08-09T19:06:56.259Z,24.70
2022-08-09T19:10:15.473Z,24.70
2022-08-09T19:13:16.107Z,24.60
2022-08-09T19:16:00.599Z,24.60
2022-08-09T19:18:48.713Z,24.50
2022-08-09T19:21:47.747Z,24.40
2022-08-09T19:25:11.516Z,24.40
2022-08-09T19:27:47.577Z,24.40
2022-08-09T19:30:44.625Z,24.30
2022-08-09T19:33:31.839Z,24.30
2022-08-09T19:36:23.410Z,24.30
2022-08-09T19:39:20.835Z,24.20
2022-08-09T19:42:19.635Z,24.20
2022-08-09T19:45:11.699Z,24.20
2022-08-09T19:48:01.352Z,24.10
2022-08-09T19:50:54.126Z,24.00
2022-08-09T19:53:45.557Z,24.00
2022-08-09T19:56:41.092Z,23.90
2022-08-09T19:59:58.018Z,23.90
2022-08-09T20:04:08.277Z,23.80
2022-08-09T20:05:50.806Z,23.80
2022-08-09T20:08:39.167Z,23.80
2022-08-09T20:11:27.043Z,23.70
2022-08-09T20:14:21.439Z,23.60
2022-08-09T20:17:09.315Z,23.60
2022-08-09T20:19:57.113Z,23.50
2022-08-09T20:22:46.690Z,23.50
2022-08-09T20:25:49.597Z,23.40
2022-08-09T20:28:48.250Z,23.40
2022-08-09T20:32:17.026Z,23.30
2022-08-09T20:34:44.724Z,23.20
2022-08-09T20:38:18.980Z,23.10
2022-08-09T20:40:41.692Z,23.00
2022-08-09T20:43:36.657Z,23.00
2022-08-09T20:46:41.673Z,22.90
2022-08-09T20:49:30.724Z,22.90
2022-08-09T20:52:21.065Z,22.80
2022-08-09T20:55:12.851Z,22.70
2022-08-09T20:58:08.486Z,22.70
2022-08-09T21:01:33.291Z,22.70
2022-08-09T21:05:52.522Z,22.60
2022-08-09T21:07:38.504Z,22.60
2022-08-09T21:10:30.624Z,22.60
2022-08-09T21:13:19.143Z,22.50
2022-08-09T21:16:19.532Z,22.40
2022-08-09T21:20:19.650Z,22.40
2022-08-09T21:22:38.366Z,22.40
2022-08-09T21:25:37.972Z,22.30
2022-08-09T21:28:34.158Z,22.30
2022-08-09T21:31:22.197Z,22.30
2022-08-09T21:34:09.967Z,22.30
2022-08-09T21:36:56.977Z,22.30
2022-08-09T21:39:44.248Z,22.30
2022-08-09T21:42:31.701Z,22.20
2022-08-09T21:45:20.240Z,22.20
2022-08-09T21:48:13.334Z,22.10
2022-08-09T21:51:00.490Z,22.00
2022-08-09T21:53:47.975Z,22.00
2022-08-09T21:56:54.265Z,22.00
2022-08-09T21:59:42.648Z,21.90
2022-08-09T22:02:36.202Z,21.90
2022-08-09T22:05:25.150Z,21.80
2022-08-09T22:08:26.145Z,21.80
2022-08-09T22:12:09.135Z,21.80
2022-08-09T22:14:20.904Z,21.70
2022-08-09T22:17:08.310Z,21.70
2022-08-09T22:20:00.894Z,21.70
2022-08-09T22:22:48.720Z,21.60
2022-08-09T22:26:07.453Z,21.50
2022-08-09T22:28:47.264Z,21.50
2022-08-09T22:31:50.653Z,21.40
2022-08-09T22:34:44.687Z,21.40
2022-08-09T22:37:47.985Z,21.40
2022-08-09T22:40:57.340Z,21.30
2022-08-09T22:44:01.523Z,21.20
2022-08-09T22:48:16.321Z,21.10
2022-08-09T22:49:58.027Z,21.10
2022-08-09T22:52:49.122Z,21.10
2022-08-09T22:56:29.755Z,21.10
2022-08-09T22:58:49.947Z,21.00
2022-08-09T23:01:38.949Z,20.90
2022-08-09T23:04:32.735Z,20.90
2022-08-09T23:08:27.337Z,20.80
2022-08-09T23:10:43.847Z,20.80
2022-08-09T23:13:30.391Z,20.70
2022-08-09T23:16:18.168Z,20.70
2022-08-09T23:19:05.395Z,20.60
2022-08-09T23:21:52.257Z,20.60
2022-08-09T23:24:39.680Z,20.50
2022-08-09T23:27:28.551Z,20.50
2022-08-09T23:30:15.750Z,20.60
2022-08-09T23:33:03.127Z,20.50
2022-08-09T23:36:05.732Z,20.50
2022-08-09T23:38:54.326Z,20.40
2022-08-09T23:41:41.743Z,20.30
2022-08-09T23:44:30.562Z,20.20
2022-08-09T23:47:17.734Z,20.20
2022-08-09T23:50:06.344Z,20.10
2022-08-09T23:52:53.929Z,20.10
2022-08-09T23:55:49.217Z,20.00
2022-08-09T23:58:37.425Z,19.90
